Dynawave — 3FEH6 — position and weather

sailwx.info

Track history (hours):
 
Tides and Currents Weather Stations Pressure Air Temp Water Temp Dewpoint Dewpoint Depression Visibility Wind Speed Wind Dir Waves Ship Positions

Dynawave

Last reported at 2014-Dec-06 11:33 UTC. Time now 2014-Dec-20 00:54 UTC.
Position N 01°08' E 103°44'.
Warning: this ship's position is 13 days out of date.

Length 209 m; draft 8.2 m.

Type: Cargo ship. MMSI: 356345000.

Date/timePositionNaut miles runAvg speedWind from/ knotsBaromVisibWave heightAir tempDewpointWater temp
2014-Dec-06 11:33N 01°08' E 103°44'1211.7
2014-Dec-06 10:33N 01°14' E 103°55'4 3.2
2014-Dec-06 09:19N 01°17' E 103°57'0 0.0
2014-Dec-06 07:25N 01°17' E 103°57'0 0.0
2014-Dec-06 06:25N 01°17' E 103°57'0 0.0
2014-Dec-06 05:13N 01°17' E 103°57'0 0.0
2014-Dec-06 04:31N 01°17' E 103°57'0 0.0
2014-Dec-06 03:22N 01°17' E 103°57'0 0.0
2014-Dec-06 02:31N 01°17' E 103°57'0 0.3
2014-Dec-06 01:25N 01°17' E 103°56'0 0.0
2014-Dec-06 00:31N 01°17' E 103°56'0 0.0
2014-Dec-05 23:31N 01°17' E 103°56'2 1.8
2014-Dec-05 22:33N 01°15' E 103°57'5 5.3
2014-Dec-05 21:33N 01°16' E 104°03'8 7.9
2014-Dec-05 20:31N 01°17' E 104°11'  
Track history (hours):
 
Tides and Currents Weather Stations Pressure Air Temp Water Temp Dewpoint Dewpoint Depression Visibility Wind Speed Wind Dir Waves Ship Positions

Dynawave

Last reported at 2014-Dec-06 11:33 UTC. Time now 2014-Dec-20 00:54 UTC.
Position N 01°08' E 103°44'.
Warning: this ship's position is 13 days out of date.

Length 209 m; draft 8.2 m.

Type: Cargo ship. MMSI: 356345000.

Date/timePositionNaut miles runAvg speedWind from/ knotsBaromVisibWave heightAir tempDewpointWater temp
2014-Dec-06 11:33N 01°08' E 103°44'1211.7
2014-Dec-06 10:33N 01°14' E 103°55'4 3.2
2014-Dec-06 09:19N 01°17' E 103°57'0 0.0
2014-Dec-06 07:25N 01°17' E 103°57'0 0.0
2014-Dec-06 06:25N 01°17' E 103°57'0 0.0
2014-Dec-06 05:13N 01°17' E 103°57'0 0.0
2014-Dec-06 04:31N 01°17' E 103°57'0 0.0
2014-Dec-06 03:22N 01°17' E 103°57'0 0.0
2014-Dec-06 02:31N 01°17' E 103°57'0 0.3
2014-Dec-06 01:25N 01°17' E 103°56'0 0.0
2014-Dec-06 00:31N 01°17' E 103°56'0 0.0
2014-Dec-05 23:31N 01°17' E 103°56'2 1.8
2014-Dec-05 22:33N 01°15' E 103°57'5 5.3
2014-Dec-05 21:33N 01°16' E 104°03'8 7.9
2014-Dec-05 20:31N 01°17' E 104°11'  

Dump ship's entire track history